createdAt,value
2023-03-29T00:01:35.350Z,3.51
2023-03-29T00:04:06.269Z,3.24
2023-03-29T00:06:34.788Z,3.12
2023-03-29T00:09:05.392Z,3.26
2023-03-29T00:11:33.681Z,3.29
2023-03-29T00:14:01.548Z,3.51
2023-03-29T00:16:29.425Z,3.69
2023-03-29T00:18:57.260Z,3.63
2023-03-29T00:21:26.691Z,3.56
2023-03-29T00:23:54.536Z,3.67
2023-03-29T00:26:22.318Z,3.70
2023-03-29T00:28:50.175Z,3.78
2023-03-29T00:31:19.313Z,3.99
2023-03-29T00:33:47.486Z,3.97
2023-03-29T00:36:16.062Z,3.96
2023-03-29T00:38:45.397Z,4.06
2023-03-29T00:41:13.300Z,4.01
2023-03-29T00:43:58.391Z,3.83
2023-03-29T00:46:27.540Z,3.72
2023-03-29T00:48:59.665Z,3.58
2023-03-29T00:51:32.017Z,3.57
2023-03-29T00:54:04.472Z,3.42
2023-03-29T00:56:37.113Z,3.19
2023-03-29T00:59:08.226Z,3.27
2023-03-29T01:01:42.256Z,3.09
2023-03-29T01:04:18.510Z,3.17
2023-03-29T01:06:51.611Z,3.15
2023-03-29T01:09:23.200Z,3.34
2023-03-29T01:11:57.053Z,3.27
2023-03-29T01:14:31.532Z,3.37
2023-03-29T01:16:59.441Z,3.45
2023-03-29T01:19:33.902Z,3.69
2023-03-29T01:22:13.540Z,3.76
2023-03-29T01:24:55.673Z,3.71
2023-03-29T01:27:48.646Z,3.94
2023-03-29T01:30:22.191Z,3.80
2023-03-29T01:32:56.933Z,3.71
2023-03-29T01:35:32.561Z,3.73
2023-03-29T01:38:07.276Z,3.72
2023-03-29T01:40:35.834Z,3.73
2023-03-29T01:43:17.515Z,3.60
2023-03-29T01:45:50.973Z,3.52
2023-03-29T01:48:26.060Z,3.54
2023-03-29T01:50:56.982Z,3.64
2023-03-29T01:53:30.600Z,3.54
2023-03-29T01:56:04.396Z,3.60
2023-03-29T01:58:38.538Z,3.58
2023-03-29T02:01:10.452Z,3.54
2023-03-29T02:03:44.430Z,3.63
2023-03-29T02:06:14.932Z,3.67
2023-03-29T02:08:44.013Z,3.60
2023-03-29T02:11:14.929Z,3.57
2023-03-29T02:13:44.450Z,3.60
2023-03-29T02:16:14.267Z,3.67
2023-03-29T02:18:45.140Z,3.55
2023-03-29T02:21:21.199Z,3.49
2023-03-29T02:23:51.582Z,3.56
2023-03-29T02:26:19.657Z,3.46
2023-03-29T02:28:49.301Z,3.67
2023-03-29T02:31:26.083Z,3.76
2023-03-29T02:34:00.409Z,3.69
2023-03-29T02:36:32.132Z,3.66
2023-03-29T02:39:04.333Z,3.61
2023-03-29T02:41:35.033Z,3.72
2023-03-29T02:44:07.727Z,3.65
2023-03-29T02:46:37.842Z,3.78
2023-03-29T02:49:06.649Z,3.78
2023-03-29T02:51:37.572Z,3.82
2023-03-29T02:54:09.127Z,3.83
2023-03-29T02:56:44.694Z,3.81
2023-03-29T02:59:14.474Z,3.69
2023-03-29T03:01:42.808Z,3.71
2023-03-29T03:04:11.234Z,3.76
2023-03-29T03:06:39.697Z,3.80
2023-03-29T03:09:07.993Z,3.64
2023-03-29T03:11:38.614Z,3.61
2023-03-29T03:14:07.539Z,3.61
2023-03-29T03:16:38.636Z,3.55
2023-03-29T03:19:06.954Z,3.59
2023-03-29T03:21:35.205Z,3.58
2023-03-29T03:24:03.247Z,3.44
2023-03-29T03:26:31.152Z,3.35
2023-03-29T03:28:59.115Z,3.43
2023-03-29T03:31:54.457Z,3.28
2023-03-29T03:34:41.089Z,3.35
2023-03-29T03:37:12.050Z,3.44
2023-03-29T03:39:40.312Z,3.47
2023-03-29T03:42:10.033Z,3.40
2023-03-29T03:44:43.117Z,3.31
2023-03-29T03:47:45.400Z,3.29
2023-03-29T03:50:39.177Z,3.18
2023-03-29T03:53:08.324Z,3.19
2023-03-29T03:55:56.923Z,3.22
2023-03-29T03:58:28.568Z,3.23
2023-03-29T04:00:58.043Z,3.35
2023-03-29T04:03:40.973Z,3.31
2023-03-29T04:06:12.465Z,3.27
2023-03-29T04:09:00.217Z,3.35
2023-03-29T04:11:35.672Z,3.33
2023-03-29T04:14:04.373Z,3.46
2023-03-29T04:16:52.533Z,3.68
2023-03-29T04:19:46.838Z,3.84
2023-03-29T04:22:15.054Z,3.89
2023-03-29T04:24:43.847Z,3.85
2023-03-29T04:27:40.849Z,3.97
2023-03-29T04:30:22.023Z,3.96
2023-03-29T04:33:10.260Z,4.12
2023-03-29T04:35:42.416Z,4.29
2023-03-29T04:38:17.053Z,4.41
2023-03-29T04:40:48.481Z,4.36
2023-03-29T04:43:46.338Z,4.41
2023-03-29T04:46:33.347Z,4.54
2023-03-29T04:49:25.999Z,4.68
2023-03-29T04:51:55.978Z,4.73
2023-03-29T04:54:27.900Z,4.77
2023-03-29T04:57:03.084Z,4.79
2023-03-29T04:59:54.421Z,4.79
2023-03-29T05:02:51.627Z,4.93
2023-03-29T05:05:20.158Z,4.90
2023-03-29T05:07:51.780Z,5.06
2023-03-29T05:10:24.535Z,5.06
2023-03-29T05:12:54.115Z,5.19
2023-03-29T05:15:23.796Z,5.32
2023-03-29T05:17:51.636Z,5.32
2023-03-29T05:20:19.494Z,5.28
2023-03-29T05:22:48.667Z,5.31
2023-03-29T05:25:37.867Z,5.37
2023-03-29T05:28:05.784Z,5.35
2023-03-29T05:30:33.753Z,5.69
2023-03-29T05:33:10.410Z,5.65
2023-03-29T05:35:40.776Z,5.61
2023-03-29T05:38:09.726Z,5.60
2023-03-29T05:40:41.408Z,5.58
2023-03-29T05:43:41.175Z,5.56
2023-03-29T05:46:09.292Z,5.58
2023-03-29T05:48:42.133Z,5.66
2023-03-29T05:51:11.403Z,5.81
2023-03-29T05:53:39.486Z,5.74
2023-03-29T05:56:10.820Z,5.63
2023-03-29T05:58:39.368Z,5.74
2023-03-29T06:01:12.814Z,5.78
2023-03-29T06:03:55.845Z,5.80
2023-03-29T06:06:27.883Z,5.70
2023-03-29T06:08:56.004Z,5.90
2023-03-29T06:11:40.973Z,5.82
2023-03-29T06:14:30.489Z,5.78
2023-03-29T06:17:17.547Z,5.83
2023-03-29T06:19:47.619Z,5.85
2023-03-29T06:22:19.118Z,5.91
2023-03-29T06:24:47.134Z,5.92
2023-03-29T06:27:25.277Z,5.97
2023-03-29T06:29:56.610Z,5.99
2023-03-29T06:32:24.478Z,6.09
2023-03-29T06:34:58.671Z,6.14
2023-03-29T06:37:50.447Z,6.25
2023-03-29T06:40:25.693Z,6.30
2023-03-29T06:42:59.663Z,6.43
2023-03-29T06:45:48.248Z,6.52
2023-03-29T06:48:30.279Z,6.62
2023-03-29T06:50:58.571Z,6.67
2023-03-29T06:53:29.795Z,6.85
2023-03-29T06:56:05.169Z,6.86
2023-03-29T06:58:42.481Z,7.00
2023-03-29T07:01:28.686Z,7.03
2023-03-29T07:04:08.155Z,7.11
2023-03-29T07:06:58.726Z,7.22
2023-03-29T07:09:29.866Z,7.37
2023-03-29T07:12:16.786Z,7.52
2023-03-29T07:14:46.840Z,7.64
2023-03-29T07:17:16.683Z,7.81
2023-03-29T07:19:44.583Z,7.90
2023-03-29T07:22:15.290Z,8.06
2023-03-29T07:24:50.783Z,8.13
2023-03-29T07:27:19.572Z,8.20
2023-03-29T07:29:51.609Z,8.33
2023-03-29T07:32:20.437Z,8.37
2023-03-29T07:34:56.668Z,8.38
2023-03-29T07:37:31.455Z,8.37
2023-03-29T07:40:01.090Z,8.48
2023-03-29T07:42:56.726Z,8.37
2023-03-29T07:45:29.608Z,8.54
2023-03-29T07:48:02.129Z,8.54
2023-03-29T07:50:45.624Z,8.44
2023-03-29T07:53:14.097Z,8.74
2023-03-29T07:55:47.286Z,8.98
2023-03-29T07:58:38.553Z,9.10
2023-03-29T08:01:10.032Z,9.13
2023-03-29T08:03:58.641Z,8.87
2023-03-29T08:06:46.739Z,8.97
2023-03-29T08:09:14.701Z,8.89
2023-03-29T08:11:45.315Z,8.87
2023-03-29T08:14:23.828Z,8.90
2023-03-29T08:17:07.518Z,8.99
2023-03-29T08:19:41.096Z,8.82
2023-03-29T08:22:25.278Z,8.84
2023-03-29T08:25:23.433Z,8.81
2023-03-29T08:27:57.343Z,8.77
2023-03-29T08:30:37.317Z,8.67
2023-03-29T08:33:07.869Z,8.69
2023-03-29T08:35:36.245Z,8.94
2023-03-29T08:38:12.956Z,8.95
2023-03-29T08:40:41.347Z,9.20
2023-03-29T08:43:35.319Z,9.31
2023-03-29T08:46:34.499Z,9.43
2023-03-29T08:49:17.505Z,9.78
2023-03-29T08:51:48.976Z,9.57
2023-03-29T08:54:20.522Z,9.77
2023-03-29T08:57:16.991Z,9.77
2023-03-29T08:59:51.904Z,9.58
2023-03-29T09:02:24.403Z,9.67
2023-03-29T09:05:03.322Z,9.73
2023-03-29T09:07:43.184Z,9.60
2023-03-29T09:10:15.628Z,9.55
2023-03-29T09:12:55.962Z,9.45
2023-03-29T09:15:29.344Z,9.55
2023-03-29T09:18:15.038Z,9.57
2023-03-29T09:20:53.342Z,9.61
2023-03-29T09:23:48.317Z,9.54
2023-03-29T09:26:37.493Z,9.80
2023-03-29T09:29:32.228Z,9.75
2023-03-29T09:32:04.354Z,9.86
2023-03-29T09:34:42.200Z,9.93
2023-03-29T09:37:24.675Z,9.88
2023-03-29T09:39:55.700Z,10.11
2023-03-29T09:42:30.216Z,10.03
2023-03-29T09:45:03.399Z,10.50
2023-03-29T09:47:43.246Z,10.84
2023-03-29T09:50:29.608Z,10.98
2023-03-29T09:53:01.328Z,11.00
2023-03-29T09:55:34.094Z,11.16
2023-03-29T09:58:24.655Z,11.28
2023-03-29T10:00:58.115Z,11.15
2023-03-29T10:03:28.391Z,11.13
2023-03-29T10:06:10.860Z,11.30
2023-03-29T10:08:47.743Z,11.10
2023-03-29T10:11:23.231Z,11.27
2023-03-29T10:13:55.054Z,11.28
2023-03-29T10:16:24.597Z,11.51
2023-03-29T10:18:54.606Z,11.52
2023-03-29T10:21:23.818Z,11.41
2023-03-29T10:23:59.426Z,11.21
2023-03-29T10:26:32.523Z,11.38
2023-03-29T10:29:01.913Z,11.15
2023-03-29T10:31:31.457Z,11.19
2023-03-29T10:34:04.759Z,11.32
2023-03-29T10:36:32.881Z,11.52
2023-03-29T10:39:06.197Z,11.79
2023-03-29T10:41:36.734Z,12.03
2023-03-29T10:44:05.202Z,12.28
2023-03-29T10:46:41.091Z,12.42
2023-03-29T10:49:19.645Z,12.13
2023-03-29T10:51:49.302Z,12.15
2023-03-29T10:54:22.159Z,12.28
2023-03-29T10:56:54.978Z,12.72
2023-03-29T10:59:28.650Z,12.46
2023-03-29T11:02:26.049Z,12.67
2023-03-29T11:05:06.263Z,12.43
2023-03-29T11:07:39.779Z,12.40
2023-03-29T11:10:28.375Z,12.71
2023-03-29T11:13:02.252Z,12.63
2023-03-29T11:15:41.568Z,13.15
2023-03-29T11:18:31.603Z,13.45
2023-03-29T11:21:11.082Z,12.95
2023-03-29T11:23:50.777Z,12.92
2023-03-29T11:26:24.390Z,12.57
2023-03-29T11:28:57.705Z,12.55
2023-03-29T11:31:37.989Z,12.71
2023-03-29T11:34:20.798Z,13.05
2023-03-29T11:36:57.349Z,12.99
2023-03-29T11:39:36.582Z,12.80
2023-03-29T11:42:13.171Z,12.89
2023-03-29T11:44:43.161Z,12.96
2023-03-29T11:47:15.202Z,12.88
2023-03-29T11:49:49.138Z,12.93
2023-03-29T11:52:22.399Z,12.96
2023-03-29T11:54:53.415Z,12.94
2023-03-29T11:57:27.806Z,13.15
2023-03-29T12:03:02.047Z,13.21
2023-03-29T12:05:35.049Z,13.27
2023-03-29T12:08:06.899Z,13.46
2023-03-29T12:10:38.729Z,13.56
2023-03-29T12:13:16.354Z,13.56
2023-03-29T12:15:49.637Z,13.82
2023-03-29T12:18:22.379Z,13.82
2023-03-29T12:20:57.495Z,13.78
2023-03-29T12:23:27.437Z,13.70
2023-03-29T12:26:04.904Z,13.75
2023-03-29T12:29:05.320Z,13.88
2023-03-29T12:31:41.970Z,13.53
2023-03-29T12:34:22.044Z,13.40
2023-03-29T12:37:33.901Z,13.53
2023-03-29T12:40:22.018Z,13.79
2023-03-29T12:43:09.837Z,13.81
2023-03-29T12:46:06.876Z,13.77
2023-03-29T12:48:38.283Z,14.04
2023-03-29T12:51:09.906Z,13.93
2023-03-29T12:53:41.462Z,13.85
2023-03-29T12:56:16.079Z,14.13
2023-03-29T12:58:54.209Z,14.37
2023-03-29T13:01:29.207Z,14.47
2023-03-29T13:04:13.772Z,15.06
2023-03-29T13:07:03.941Z,15.19
2023-03-29T13:09:35.657Z,14.97
2023-03-29T13:12:10.194Z,14.68
2023-03-29T13:14:42.671Z,14.89
2023-03-29T13:17:25.734Z,15.02
2023-03-29T13:20:09.259Z,15.01
2023-03-29T13:22:48.840Z,14.69
2023-03-29T13:25:46.152Z,14.56
2023-03-29T13:28:23.289Z,14.60
2023-03-29T13:31:00.151Z,14.66
2023-03-29T13:33:58.565Z,14.87
2023-03-29T13:36:39.640Z,14.76
2023-03-29T13:39:08.762Z,15.00
2023-03-29T13:41:49.405Z,14.72
2023-03-29T13:44:30.189Z,14.57
2023-03-29T13:47:10.986Z,14.47
2023-03-29T13:49:43.946Z,14.27
2023-03-29T13:52:19.840Z,14.17
2023-03-29T13:54:54.853Z,14.04
2023-03-29T13:57:26.152Z,13.99
2023-03-29T14:00:00.505Z,13.87
2023-03-29T14:02:56.905Z,13.86
2023-03-29T14:05:31.519Z,13.77
2023-03-29T14:08:09.562Z,13.72
2023-03-29T14:10:41.619Z,13.65
2023-03-29T14:13:13.708Z,13.67
2023-03-29T14:15:46.313Z,13.48
2023-03-29T14:18:17.450Z,13.55
2023-03-29T14:20:49.139Z,13.67
2023-03-29T14:23:21.823Z,13.81
2023-03-29T14:25:49.896Z,13.84
2023-03-29T14:28:23.192Z,13.80
2023-03-29T14:30:52.784Z,13.80
2023-03-29T14:33:34.426Z,13.92
2023-03-29T14:36:05.896Z,13.95
2023-03-29T14:38:37.157Z,13.85
2023-03-29T14:41:05.411Z,13.80
2023-03-29T14:43:33.641Z,13.80
2023-03-29T14:46:06.996Z,13.81
2023-03-29T14:48:35.766Z,13.87
2023-03-29T14:51:05.984Z,13.92
2023-03-29T14:53:34.480Z,13.78
2023-03-29T14:56:02.561Z,13.60
2023-03-29T14:58:34.225Z,13.39
2023-03-29T15:01:06.979Z,13.24
2023-03-29T15:03:44.430Z,13.11
2023-03-29T15:06:15.088Z,13.03
2023-03-29T15:08:51.111Z,12.78
2023-03-29T15:11:24.235Z,12.59
2023-03-29T15:13:55.156Z,12.35
2023-03-29T15:16:23.492Z,12.26
2023-03-29T15:18:53.856Z,11.99
2023-03-29T15:21:23.697Z,11.66
2023-03-29T15:23:54.815Z,11.40
2023-03-29T15:26:26.189Z,11.18
2023-03-29T15:28:57.457Z,10.92
2023-03-29T15:31:27.494Z,10.80
2023-03-29T15:34:06.235Z,10.71
2023-03-29T15:36:42.111Z,10.60
2023-03-29T15:39:13.475Z,10.50
2023-03-29T15:41:41.724Z,10.51
2023-03-29T15:44:09.691Z,10.58
2023-03-29T15:46:37.973Z,10.69
2023-03-29T15:49:05.997Z,10.73
2023-03-29T15:51:33.753Z,10.85
2023-03-29T15:54:02.944Z,10.88
2023-03-29T15:56:33.410Z,10.89
2023-03-29T15:59:01.710Z,10.80
2023-03-29T16:01:35.218Z,10.79
2023-03-29T16:04:03.704Z,10.77
2023-03-29T16:06:31.631Z,10.69
2023-03-29T16:08:59.569Z,10.70
2023-03-29T16:11:29.115Z,10.72
2023-03-29T16:13:57.768Z,10.66
2023-03-29T16:16:26.081Z,10.61
2023-03-29T16:18:53.896Z,10.62
2023-03-29T16:21:23.327Z,10.55
2023-03-29T16:23:51.739Z,10.45
2023-03-29T16:26:19.544Z,10.44
2023-03-29T16:28:48.785Z,10.42
2023-03-29T16:31:16.631Z,10.35
2023-03-29T16:33:44.758Z,10.21
2023-03-29T16:36:13.137Z,10.33
2023-03-29T16:38:41.547Z,10.22
2023-03-29T16:41:12.559Z,10.22
2023-03-29T16:43:40.441Z,10.18
2023-03-29T16:46:10.251Z,10.09
2023-03-29T16:48:38.541Z,10.08
2023-03-29T16:51:10.106Z,10.03
2023-03-29T16:53:38.127Z,10.05
2023-03-29T16:56:07.861Z,10.02
2023-03-29T16:58:36.187Z,9.95
2023-03-29T17:01:16.694Z,9.87
2023-03-29T17:03:45.029Z,9.87
2023-03-29T17:06:12.992Z,9.80
2023-03-29T17:08:42.391Z,9.79
2023-03-29T17:11:11.756Z,9.79
2023-03-29T17:13:40.306Z,9.76
2023-03-29T17:16:09.266Z,9.73
2023-03-29T17:18:38.640Z,9.71
2023-03-29T17:21:07.451Z,9.74
2023-03-29T17:23:35.351Z,9.74
2023-03-29T17:26:03.436Z,9.71
2023-03-29T17:28:31.420Z,9.72
2023-03-29T17:30:59.408Z,9.71
2023-03-29T17:33:27.339Z,9.73
2023-03-29T17:35:57.583Z,9.72
2023-03-29T17:38:26.674Z,9.67
2023-03-29T17:40:54.809Z,9.68
2023-03-29T17:43:23.152Z,9.70
2023-03-29T17:45:54.600Z,9.69
2023-03-29T17:48:24.469Z,9.61
2023-03-29T17:50:52.394Z,9.68
2023-03-29T17:53:21.687Z,9.66
2023-03-29T17:55:49.465Z,9.62
2023-03-29T17:58:17.337Z,9.63
2023-03-29T18:00:45.150Z,9.60
2023-03-29T18:03:13.023Z,9.52
2023-03-29T18:05:40.827Z,9.66
2023-03-29T18:08:09.121Z,9.96
2023-03-29T18:10:38.280Z,9.97
2023-03-29T18:13:05.995Z,9.84
2023-03-29T18:15:33.750Z,9.90
2023-03-29T18:18:01.609Z,9.96
2023-03-29T18:20:29.520Z,10.37
2023-03-29T18:22:57.434Z,10.03
2023-03-29T18:25:26.255Z,9.86
2023-03-29T18:27:55.473Z,9.71
2023-03-29T18:30:23.272Z,9.57
2023-03-29T18:32:51.064Z,9.47
2023-03-29T18:35:18.908Z,9.41
2023-03-29T18:37:46.966Z,9.37
2023-03-29T18:40:15.584Z,9.31
2023-03-29T18:42:43.374Z,9.27
2023-03-29T18:45:13.554Z,9.20
2023-03-29T18:47:41.407Z,9.15
2023-03-29T18:50:10.351Z,9.13
2023-03-29T18:52:38.188Z,9.11
2023-03-29T18:55:07.347Z,9.06
2023-03-29T18:57:35.220Z,9.09
2023-03-29T19:00:12.577Z,9.10
2023-03-29T19:02:42.421Z,9.09
2023-03-29T19:05:11.279Z,9.09
2023-03-29T19:07:39.187Z,9.14
2023-03-29T19:10:08.570Z,9.16
2023-03-29T19:12:41.243Z,9.16
2023-03-29T19:15:10.724Z,9.18
2023-03-29T19:17:38.522Z,9.18
2023-03-29T19:20:10.024Z,9.18
2023-03-29T19:22:37.888Z,9.17
2023-03-29T19:25:07.493Z,9.22
2023-03-29T19:27:35.326Z,9.21
2023-03-29T19:30:03.119Z,9.23
2023-03-29T19:32:32.517Z,9.23
2023-03-29T19:35:01.483Z,9.23
2023-03-29T19:37:30.804Z,9.24
2023-03-29T19:39:58.643Z,9.21
2023-03-29T19:42:26.506Z,9.22
2023-03-29T19:44:54.246Z,9.22
2023-03-29T19:47:22.050Z,9.28
2023-03-29T19:49:50.280Z,9.33
2023-03-29T19:52:18.080Z,9.34
2023-03-29T19:54:47.349Z,9.44
2023-03-29T19:57:15.279Z,9.56
2023-03-29T19:59:43.294Z,9.69
2023-03-29T20:02:11.845Z,9.80
2023-03-29T20:04:40.046Z,9.88
2023-03-29T20:07:08.391Z,9.93
2023-03-29T20:09:36.587Z,10.25
2023-03-29T20:12:06.145Z,10.43
2023-03-29T20:14:34.959Z,10.39
2023-03-29T20:17:05.791Z,10.37
2023-03-29T20:19:36.557Z,10.25
2023-03-29T20:22:05.314Z,10.19
2023-03-29T20:24:34.633Z,10.15
2023-03-29T20:27:04.460Z,10.12
2023-03-29T20:29:34.442Z,10.13
2023-03-29T20:32:02.584Z,10.10
2023-03-29T20:34:30.834Z,10.12
2023-03-29T20:37:00.855Z,10.10
2023-03-29T20:39:29.585Z,10.10
2023-03-29T20:41:57.522Z,10.07
2023-03-29T20:44:26.292Z,10.01
2023-03-29T20:47:03.363Z,9.98
2023-03-29T20:49:37.210Z,9.98
2023-03-29T20:52:08.286Z,9.98
2023-03-29T20:54:36.986Z,9.99
2023-03-29T20:57:05.347Z,10.00
2023-03-29T20:59:34.339Z,9.98
2023-03-29T21:02:03.560Z,10.00
2023-03-29T21:04:31.793Z,10.09
2023-03-29T21:07:02.492Z,10.21
2023-03-29T21:09:31.026Z,10.08
2023-03-29T21:11:58.868Z,10.09
2023-03-29T21:14:26.703Z,9.95
2023-03-29T21:16:54.629Z,9.97
2023-03-29T21:19:24.209Z,9.87
2023-03-29T21:21:52.305Z,9.91
2023-03-29T21:24:20.257Z,9.90
2023-03-29T21:26:48.376Z,9.88
2023-03-29T21:29:16.283Z,9.86
2023-03-29T21:31:44.200Z,9.86
2023-03-29T21:34:12.051Z,9.84
2023-03-29T21:36:42.323Z,9.88
2023-03-29T21:39:10.159Z,9.86
2023-03-29T21:41:37.989Z,9.85
2023-03-29T21:44:05.770Z,9.84
2023-03-29T21:46:33.641Z,11.85
2023-03-29T21:49:01.564Z,13.02
2023-03-29T21:51:29.367Z,13.21
2023-03-29T21:53:58.532Z,12.67
2023-03-29T21:56:26.431Z,12.53
2023-03-29T21:58:54.258Z,12.12
2023-03-29T22:01:22.109Z,12.98
2023-03-29T22:03:49.977Z,12.10
2023-03-29T22:06:17.753Z,11.32
2023-03-29T22:08:46.692Z,10.88
2023-03-29T22:11:17.509Z,10.67
2023-03-29T22:13:45.930Z,10.50
2023-03-29T22:16:16.808Z,10.43
2023-03-29T22:18:49.073Z,10.37
2023-03-29T22:21:19.271Z,10.22
2023-03-29T22:23:49.711Z,10.23
2023-03-29T22:26:21.393Z,10.20
2023-03-29T22:28:49.214Z,10.18
2023-03-29T22:31:19.131Z,10.14
2023-03-29T22:33:47.559Z,10.15
2023-03-29T22:36:17.215Z,10.04
2023-03-29T22:38:46.251Z,10.10
2023-03-29T22:41:15.094Z,10.11
2023-03-29T22:43:44.306Z,10.05
2023-03-29T22:46:14.433Z,9.98
2023-03-29T22:48:42.288Z,9.98
2023-03-29T22:51:10.079Z,9.95
2023-03-29T22:53:37.885Z,10.00
2023-03-29T22:56:07.000Z,9.92
2023-03-29T22:58:34.927Z,9.92
2023-03-29T23:01:04.821Z,9.85
2023-03-29T23:03:33.371Z,9.89
2023-03-29T23:06:02.309Z,9.92
2023-03-29T23:08:31.845Z,9.87
2023-03-29T23:11:00.123Z,9.91
2023-03-29T23:13:29.091Z,9.95
2023-03-29T23:15:59.273Z,9.97
2023-03-29T23:18:30.424Z,9.99
2023-03-29T23:21:00.327Z,9.98
2023-03-29T23:23:29.188Z,10.03
2023-03-29T23:25:57.870Z,10.03
2023-03-29T23:28:30.211Z,10.07
2023-03-29T23:31:00.323Z,10.04
2023-03-29T23:33:33.215Z,10.08
2023-03-29T23:36:03.332Z,10.00
2023-03-29T23:38:31.902Z,10.06
2023-03-29T23:41:02.038Z,10.13
2023-03-29T23:43:35.383Z,10.14
2023-03-29T23:46:04.477Z,10.19
2023-03-29T23:48:34.235Z,10.27
2023-03-29T23:51:03.012Z,10.31
2023-03-29T23:53:32.075Z,10.41
2023-03-29T23:56:01.558Z,10.48
2023-03-29T23:58:29.909Z,10.62
